createdAt,value
2019-02-22T00:01:00.116Z,26.60
2019-02-22T00:03:28.827Z,24.43
2019-02-22T00:05:57.410Z,25.03
2019-02-22T00:08:25.942Z,26.87
2019-02-22T00:10:54.506Z,26.07
2019-02-22T00:13:23.046Z,25.93
2019-02-22T00:15:51.907Z,27.10
2019-02-22T00:18:20.513Z,24.27
2019-02-22T00:20:49.003Z,25.23
2019-02-22T00:23:17.537Z,24.97
2019-02-22T00:25:46.038Z,27.00
2019-02-22T00:28:14.911Z,27.10
2019-02-22T00:30:43.486Z,26.53
2019-02-22T00:33:12.030Z,28.37
2019-02-22T00:35:40.600Z,27.40
2019-02-22T00:38:09.130Z,28.23
2019-02-22T00:41:00.214Z,28.63
2019-02-22T00:43:28.746Z,29.13
2019-02-22T00:45:57.505Z,30.87
2019-02-22T00:48:25.995Z,30.33
2019-02-22T00:50:54.542Z,31.30
2019-02-22T00:53:23.116Z,29.73
2019-02-22T00:55:51.645Z,30.80
2019-02-22T00:58:20.134Z,31.47
2019-02-22T01:00:48.890Z,30.70
2019-02-22T01:03:17.458Z,30.53
2019-02-22T01:05:45.998Z,31.73
2019-02-22T01:08:14.562Z,30.77
2019-02-22T01:10:43.098Z,32.10
2019-02-22T01:13:11.736Z,31.00
2019-02-22T01:15:40.271Z,32.27
2019-02-22T01:18:08.768Z,29.97
2019-02-22T01:20:37.311Z,33.77
2019-02-22T01:23:06.218Z,32.20
2019-02-22T01:25:34.679Z,33.93
2019-02-22T01:28:03.245Z,32.33
2019-02-22T01:30:31.800Z,34.47
2019-02-22T01:33:00.369Z,32.20
2019-02-22T01:35:28.911Z,32.43
2019-02-22T01:37:57.475Z,33.07
2019-02-22T01:40:26.018Z,34.97
2019-02-22T01:42:54.584Z,34.57
2019-02-22T01:45:23.122Z,33.63
2019-02-22T01:47:52.031Z,35.27
2019-02-22T01:50:24.295Z,34.93
2019-02-22T01:52:52.838Z,32.63
2019-02-22T01:55:21.402Z,31.27
2019-02-22T01:57:50.241Z,35.07
2019-02-22T02:00:18.979Z,34.67
2019-02-22T02:02:47.523Z,35.90
2019-02-22T02:05:16.094Z,35.80
2019-02-22T02:07:44.634Z,36.30
2019-02-22T02:10:13.553Z,36.37
2019-02-22T02:12:42.342Z,35.60
2019-02-22T02:15:10.978Z,35.80
2019-02-22T02:17:39.513Z,37.53
2019-02-22T02:20:08.501Z,37.67
2019-02-22T02:22:37.009Z,35.43
2019-02-22T02:25:07.919Z,36.43
2019-02-22T02:27:36.457Z,35.00
2019-02-22T02:30:07.796Z,37.43
2019-02-22T02:32:36.334Z,34.73
2019-02-22T02:35:05.666Z,37.40
2019-02-22T02:37:34.499Z,37.07
2019-02-22T02:40:03.138Z,35.10
2019-02-22T02:42:31.675Z,37.47
2019-02-22T02:45:00.533Z,35.17
2019-02-22T02:47:29.446Z,35.50
2019-02-22T02:49:58.074Z,35.10
2019-02-22T02:52:26.611Z,36.03
2019-02-22T02:54:55.185Z,34.27
2019-02-22T02:57:23.722Z,35.17
2019-02-22T02:59:52.292Z,33.77
2019-02-22T03:02:22.470Z,36.30
2019-02-22T03:04:51.046Z,36.40
2019-02-22T03:07:37.705Z,32.63
2019-02-22T03:10:08.014Z,33.90
2019-02-22T03:12:36.546Z,33.77
2019-02-22T03:15:06.854Z,33.00
2019-02-22T03:17:35.325Z,32.70
2019-02-22T03:20:05.436Z,32.87
2019-02-22T03:22:34.049Z,35.17
2019-02-22T03:25:02.690Z,34.20
2019-02-22T03:27:31.230Z,33.30
2019-02-22T03:29:59.771Z,34.47
2019-02-22T03:32:28.272Z,34.53
2019-02-22T03:34:56.814Z,33.60
2019-02-22T03:37:25.376Z,34.57
2019-02-22T03:39:53.987Z,32.90
2019-02-22T03:42:22.623Z,32.47
2019-02-22T03:44:51.230Z,35.80
2019-02-22T03:47:19.806Z,33.30
2019-02-22T03:49:48.338Z,31.93
2019-02-22T03:52:27.552Z,32.10
2019-02-22T03:54:56.163Z,32.53
2019-02-22T03:57:24.795Z,32.40
2019-02-22T03:59:53.479Z,30.70
2019-02-22T04:02:23.214Z,30.93
2019-02-22T04:04:51.950Z,30.00
2019-02-22T04:07:20.496Z,31.63
2019-02-22T04:09:49.033Z,30.53
2019-02-22T04:12:17.606Z,30.23
2019-02-22T04:14:46.282Z,29.77
2019-02-22T04:17:14.851Z,29.10
2019-02-22T04:19:43.396Z,30.83
2019-02-22T04:22:12.276Z,30.40
2019-02-22T04:24:40.811Z,28.43
2019-02-22T04:27:09.378Z,29.33
2019-02-22T04:29:37.928Z,32.27
2019-02-22T04:32:06.495Z,31.47
2019-02-22T04:34:35.036Z,31.50
2019-02-22T04:37:03.605Z,29.73
2019-02-22T04:39:32.147Z,28.73
2019-02-22T04:42:00.724Z,29.90
2019-02-22T04:44:29.258Z,29.13
2019-02-22T04:46:57.835Z,30.67
2019-02-22T04:49:26.371Z,30.37
2019-02-22T04:51:54.964Z,30.10
2019-02-22T04:54:23.498Z,30.60
2019-02-22T04:56:51.994Z,27.70
2019-02-22T04:59:20.530Z,30.10
2019-02-22T05:01:49.071Z,28.70
2019-02-22T05:04:17.638Z,29.70
2019-02-22T05:06:46.251Z,28.60
2019-02-22T05:09:14.887Z,29.70
2019-02-22T05:11:43.427Z,29.10
2019-02-22T05:14:12.000Z,28.13
2019-02-22T05:16:40.555Z,26.57
2019-02-22T05:19:09.149Z,27.00
2019-02-22T05:21:38.009Z,29.23
2019-02-22T05:24:06.571Z,28.10
2019-02-22T05:26:35.110Z,27.40
2019-02-22T05:29:03.674Z,29.40
2019-02-22T05:31:32.211Z,27.77
2019-02-22T05:34:00.777Z,29.30
2019-02-22T05:36:29.319Z,26.20
2019-02-22T05:38:57.887Z,26.13
2019-02-22T05:41:26.428Z,25.30
2019-02-22T05:43:54.991Z,27.57
2019-02-22T05:46:23.536Z,26.47
2019-02-22T05:48:52.104Z,25.60
2019-02-22T05:51:20.640Z,25.47
2019-02-22T05:53:49.211Z,22.97
2019-02-22T05:56:17.818Z,26.87
2019-02-22T05:58:46.389Z,20.30
2019-02-22T06:01:14.930Z,20.00
2019-02-22T06:03:43.781Z,18.10
2019-02-22T06:06:12.319Z,18.77
2019-02-22T06:08:40.884Z,20.43
2019-02-22T06:11:09.427Z,18.63
2019-02-22T06:13:38.001Z,15.80
2019-02-22T06:16:06.610Z,21.30
2019-02-22T06:18:35.173Z,18.17
2019-02-22T06:21:03.646Z,16.00
2019-02-22T06:23:32.631Z,17.37
2019-02-22T06:26:01.170Z,14.97
2019-02-22T06:28:29.715Z,14.40
2019-02-22T06:30:58.305Z,17.07
2019-02-22T06:33:26.902Z,17.77
2019-02-22T06:35:55.471Z,15.50
2019-02-22T06:38:24.010Z,14.77
2019-02-22T06:40:52.582Z,13.90
2019-02-22T06:43:21.123Z,15.30
2019-02-22T06:45:49.686Z,14.30
2019-02-22T06:48:18.230Z,14.10
2019-02-22T06:50:46.794Z,14.87
2019-02-22T06:53:15.330Z,15.60
2019-02-22T06:55:43.900Z,14.80
2019-02-22T06:58:12.444Z,14.00
2019-02-22T07:00:41.015Z,15.10
2019-02-22T07:03:09.559Z,14.33
2019-02-22T07:05:38.126Z,13.20
2019-02-22T07:08:06.982Z,13.67
2019-02-22T07:10:37.430Z,14.13
2019-02-22T07:13:07.612Z,13.30
2019-02-22T07:15:36.179Z,13.97
2019-02-22T07:18:04.722Z,14.40
2019-02-22T07:20:33.293Z,15.37
2019-02-22T07:23:01.764Z,15.60
2019-02-22T07:25:30.326Z,15.30
2019-02-22T07:27:58.866Z,14.40
2019-02-22T07:30:27.434Z,13.17
2019-02-22T07:32:56.025Z,13.80
2019-02-22T07:35:24.562Z,14.50
2019-02-22T07:37:53.434Z,14.87
2019-02-22T07:40:22.329Z,14.83
2019-02-22T07:42:50.865Z,13.83
2019-02-22T07:45:19.434Z,13.77
2019-02-22T07:47:47.975Z,13.60
2019-02-22T07:50:16.543Z,13.37
2019-02-22T07:52:45.351Z,15.40
2019-02-22T07:55:13.950Z,14.40
2019-02-22T07:57:42.492Z,13.47
2019-02-22T08:00:13.666Z,13.93
2019-02-22T08:02:42.206Z,14.00
2019-02-22T08:05:10.820Z,13.73
2019-02-22T08:07:39.421Z,14.83
2019-02-22T08:10:08.367Z,12.87
2019-02-22T08:12:36.934Z,13.37
2019-02-22T08:15:07.618Z,12.00
2019-02-22T08:17:36.191Z,11.60
2019-02-22T08:20:06.775Z,11.60
2019-02-22T08:22:35.346Z,11.23
2019-02-22T08:25:05.030Z,11.37
2019-02-22T08:27:33.677Z,10.90
2019-02-22T08:30:02.222Z,10.27
2019-02-22T08:32:30.793Z,9.30
2019-02-22T08:34:59.370Z,9.87
2019-02-22T08:37:27.926Z,9.30
2019-02-22T08:40:02.085Z,8.97
2019-02-22T08:42:29.687Z,10.43
2019-02-22T08:44:58.293Z,9.53
2019-02-22T08:47:26.866Z,10.03
2019-02-22T08:49:55.410Z,9.73
2019-02-22T08:52:23.980Z,9.87
2019-02-22T08:54:52.526Z,10.87
2019-02-22T08:57:21.086Z,9.90
2019-02-22T08:59:49.626Z,9.90
2019-02-22T09:02:18.203Z,8.90
2019-02-22T09:04:47.046Z,8.60
2019-02-22T09:07:15.674Z,8.10
2019-02-22T09:09:44.217Z,8.70
2019-02-22T09:12:12.790Z,7.40
2019-02-22T09:14:41.327Z,7.10
2019-02-22T09:17:09.894Z,6.73
2019-02-22T09:19:38.762Z,6.47
2019-02-22T09:22:07.336Z,6.93
2019-02-22T09:24:35.871Z,6.50
2019-02-22T09:27:04.445Z,6.50
2019-02-22T09:29:32.971Z,5.90
2019-02-22T09:32:01.517Z,5.93
2019-02-22T09:34:30.086Z,5.60
2019-02-22T09:36:58.777Z,6.60
2019-02-22T09:39:27.391Z,5.00
2019-02-22T09:41:55.926Z,5.30
2019-02-22T09:44:24.487Z,5.07
2019-02-22T09:46:53.032Z,5.57
2019-02-22T09:49:21.656Z,5.40
2019-02-22T09:51:50.415Z,4.67
2019-02-22T09:54:18.986Z,4.63
2019-02-22T09:56:47.546Z,5.23
2019-02-22T09:59:16.123Z,3.87
2019-02-22T10:01:44.664Z,3.97
2019-02-22T10:04:13.237Z,4.90
2019-02-22T10:06:41.771Z,4.37
2019-02-22T10:09:10.338Z,4.80
2019-02-22T10:11:38.878Z,4.50
2019-02-22T10:14:07.453Z,4.03
2019-02-22T10:16:36.054Z,4.37
2019-02-22T10:19:04.754Z,4.87
2019-02-22T10:21:33.288Z,4.27
2019-02-22T10:24:01.847Z,4.30
2019-02-22T10:26:30.391Z,4.80
2019-02-22T10:28:59.029Z,4.30
2019-02-22T10:31:27.571Z,5.00
2019-02-22T10:33:56.134Z,4.13
2019-02-22T10:36:24.667Z,3.40
2019-02-22T10:38:53.234Z,4.00
2019-02-22T10:41:21.776Z,3.40
2019-02-22T10:43:50.343Z,4.00
2019-02-22T10:46:18.886Z,4.00
2019-02-22T10:48:47.881Z,3.90
2019-02-22T10:51:16.418Z,4.10
2019-02-22T10:53:45.352Z,3.80
2019-02-22T10:56:13.887Z,3.83
2019-02-22T10:58:42.450Z,3.87
2019-02-22T11:01:10.991Z,3.80
2019-02-22T11:03:39.554Z,4.27
2019-02-22T11:06:08.094Z,3.90
2019-02-22T11:08:36.634Z,4.10
2019-02-22T11:11:05.270Z,3.70
2019-02-22T11:13:33.807Z,3.80
2019-02-22T11:16:02.674Z,3.50
2019-02-22T11:18:31.142Z,4.53
2019-02-22T11:20:59.703Z,4.63
2019-02-22T11:23:28.242Z,3.80
2019-02-22T11:25:56.734Z,4.70
2019-02-22T11:28:25.274Z,4.87
2019-02-22T11:30:53.843Z,3.57
2019-02-22T11:33:22.380Z,4.47
2019-02-22T11:35:51.116Z,4.50
2019-02-22T11:38:19.658Z,4.27
2019-02-22T11:40:48.226Z,4.37
2019-02-22T11:43:16.771Z,5.17
2019-02-22T11:45:45.334Z,4.30
2019-02-22T11:48:13.890Z,3.97
2019-02-22T11:50:42.458Z,4.57
2019-02-22T11:53:10.997Z,4.23
2019-02-22T11:55:39.562Z,3.77
2019-02-22T11:58:08.102Z,4.00
2019-02-22T12:00:36.810Z,4.60
2019-02-22T12:03:16.103Z,3.80
2019-02-22T12:05:35.827Z,3.93
2019-02-22T12:08:04.822Z,3.73
2019-02-22T12:10:33.386Z,5.43
2019-02-22T12:13:01.927Z,6.17
2019-02-22T12:15:31.514Z,3.93
2019-02-22T12:18:00.245Z,3.87
2019-02-22T12:20:28.802Z,3.83
2019-02-22T12:22:57.345Z,3.87
2019-02-22T12:25:25.978Z,3.83
2019-02-22T12:27:54.511Z,4.33
2019-02-22T12:30:25.567Z,3.80
2019-02-22T12:32:53.262Z,4.60
2019-02-22T12:35:21.831Z,10.60
2019-02-22T12:37:50.442Z,5.93
2019-02-22T12:40:19.027Z,5.40
2019-02-22T12:42:47.562Z,5.10
2019-02-22T12:45:16.303Z,4.80
2019-02-22T12:47:44.843Z,42.87
2019-02-22T12:50:14.102Z,5.60
2019-02-22T12:52:42.647Z,17.20
2019-02-22T12:55:11.508Z,5.20
2019-02-22T12:57:40.042Z,6.17
2019-02-22T13:00:11.730Z,5.00
2019-02-22T13:02:40.302Z,5.73
2019-02-22T13:05:11.782Z,6.60
2019-02-22T13:07:40.287Z,4.90
2019-02-22T13:10:09.005Z,5.20
2019-02-22T13:12:37.590Z,5.03
2019-02-22T13:15:14.109Z,4.80
2019-02-22T13:17:39.612Z,4.17
2019-02-22T13:20:09.742Z,6.70
2019-02-22T13:22:38.394Z,5.17
2019-02-22T13:25:09.078Z,15.60
2019-02-22T13:27:37.804Z,15.80
2019-02-22T13:30:17.285Z,5.00
2019-02-22T13:32:45.855Z,6.00
2019-02-22T13:35:14.394Z,7.67
2019-02-22T13:37:43.025Z,5.37
2019-02-22T13:40:14.567Z,6.83
2019-02-22T13:42:43.208Z,4.17
2019-02-22T13:45:25.857Z,4.03
2019-02-22T13:47:45.146Z,3.00
2019-02-22T13:50:17.721Z,3.77
2019-02-22T13:52:46.287Z,3.70
2019-02-22T13:55:15.291Z,3.83
2019-02-22T13:57:43.836Z,3.40
2019-02-22T14:00:15.340Z,2.90
2019-02-22T14:02:43.871Z,3.37
2019-02-22T14:05:12.611Z,3.27
2019-02-22T14:07:52.408Z,3.70
2019-02-22T14:10:21.215Z,3.73
2019-02-22T14:12:49.754Z,3.70
2019-02-22T14:15:18.905Z,4.60
2019-02-22T14:17:47.518Z,4.30
2019-02-22T14:20:16.336Z,4.97
2019-02-22T14:22:45.149Z,4.80
2019-02-22T14:25:13.782Z,3.63
2019-02-22T14:27:42.250Z,4.30
2019-02-22T14:30:13.058Z,4.67
2019-02-22T14:32:41.598Z,3.63
2019-02-22T14:35:10.302Z,4.10
2019-02-22T14:37:38.851Z,4.07
2019-02-22T14:40:10.154Z,4.10
2019-02-22T14:42:38.774Z,12.00
2019-02-22T14:45:09.374Z,6.80
2019-02-22T14:47:37.919Z,8.00
2019-02-22T14:50:17.842Z,3.90
2019-02-22T14:52:46.556Z,6.07
2019-02-22T14:55:15.138Z,4.30
2019-02-22T14:57:45.233Z,4.70
2019-02-22T15:00:18.554Z,4.17
2019-02-22T15:02:47.166Z,3.30
2019-02-22T15:05:15.980Z,3.40
2019-02-22T15:07:44.583Z,3.50
2019-02-22T15:10:13.276Z,3.30
2019-02-22T15:12:41.898Z,3.50
2019-02-22T15:15:15.887Z,4.53
2019-02-22T15:17:49.378Z,4.57
2019-02-22T15:20:17.947Z,4.30
2019-02-22T15:22:46.493Z,4.07
2019-02-22T15:25:16.319Z,5.80
2019-02-22T15:27:44.846Z,7.67
2019-02-22T15:30:15.618Z,23.93
2019-02-22T15:32:47.400Z,41.60
2019-02-22T15:35:17.378Z,8.33
2019-02-22T15:37:47.140Z,5.07
2019-02-22T15:40:15.807Z,4.57
2019-02-22T15:42:44.410Z,27.93
2019-02-22T15:45:16.725Z,7.37
2019-02-22T15:47:45.305Z,3.73
2019-02-22T15:50:18.742Z,3.13
2019-02-22T15:52:49.364Z,5.10
2019-02-22T15:55:17.941Z,7.80
2019-02-22T15:57:46.546Z,3.83
2019-02-22T16:00:23.788Z,5.03
2019-02-22T16:02:52.332Z,4.07
2019-02-22T16:05:22.580Z,4.10
2019-02-22T16:07:51.155Z,4.43
2019-02-22T16:10:19.624Z,2.53
2019-02-22T16:12:48.319Z,3.30
2019-02-22T16:15:18.114Z,3.27
2019-02-22T16:17:46.707Z,83.40
2019-02-22T16:20:15.315Z,5.77
2019-02-22T16:22:44.811Z,4.50
2019-02-22T16:25:19.442Z,4.60
2019-02-22T16:27:43.662Z,15.40
2019-02-22T16:30:16.025Z,4.77
2019-02-22T16:32:44.602Z,4.90
2019-02-22T16:35:13.316Z,6.47
2019-02-22T16:37:41.861Z,12.93
2019-02-22T16:40:12.391Z,16.13
2019-02-22T16:42:43.068Z,5.80
2019-02-22T16:45:12.770Z,5.70
2019-02-22T16:47:41.318Z,4.40
2019-02-22T16:50:13.093Z,33.80
2019-02-22T16:52:41.661Z,8.37
2019-02-22T16:55:12.541Z,5.90
2019-02-22T16:57:41.110Z,6.50
2019-02-22T17:00:11.885Z,4.90
2019-02-22T17:02:40.355Z,8.97
2019-02-22T17:05:11.463Z,5.43
2019-02-22T17:07:40.003Z,4.93
2019-02-22T17:10:10.501Z,5.03
2019-02-22T17:12:39.115Z,5.33
2019-02-22T17:15:12.795Z,4.67
2019-02-22T17:17:41.342Z,5.30
2019-02-22T17:20:12.110Z,4.80
2019-02-22T17:22:40.651Z,4.77
2019-02-22T17:25:17.967Z,4.70
2019-02-22T17:27:46.507Z,4.93
2019-02-22T17:30:16.811Z,5.20
2019-02-22T17:32:45.978Z,4.30
2019-02-22T17:35:14.530Z,5.40
2019-02-22T17:37:42.999Z,4.60
2019-02-22T17:40:16.214Z,5.10
2019-02-22T17:42:44.745Z,6.37
2019-02-22T17:45:13.307Z,5.90
2019-02-22T17:47:41.853Z,6.33
2019-02-22T17:50:10.848Z,5.80
2019-02-22T17:52:39.379Z,5.13
2019-02-22T17:55:09.483Z,5.80
2019-02-22T17:57:38.030Z,6.53
2019-02-22T18:00:16.286Z,5.50
2019-02-22T18:02:44.826Z,6.77
2019-02-22T18:05:13.455Z,5.90
2019-02-22T18:07:42.014Z,6.43
2019-02-22T18:10:11.627Z,5.70
2019-02-22T18:12:40.174Z,5.40
2019-02-22T18:15:14.179Z,5.97
2019-02-22T18:17:44.855Z,6.37
2019-02-22T18:20:13.550Z,5.87
2019-02-22T18:22:42.014Z,6.37
2019-02-22T18:25:11.082Z,5.80
2019-02-22T18:27:39.649Z,7.60
2019-02-22T18:30:22.611Z,11.23
2019-02-22T18:32:51.161Z,10.30
2019-02-22T18:35:19.768Z,9.60
2019-02-22T18:37:48.337Z,9.43
2019-02-22T18:40:21.975Z,12.20
2019-02-22T18:42:50.684Z,11.03
2019-02-22T18:45:19.226Z,12.50
2019-02-22T18:47:48.108Z,16.97
2019-02-22T18:50:16.627Z,11.37
2019-02-22T18:52:45.227Z,8.77
2019-02-22T18:55:14.135Z,6.10
2019-02-22T18:57:43.024Z,9.63
2019-02-22T19:00:21.313Z,8.87
2019-02-22T19:02:49.942Z,7.53
2019-02-22T19:05:18.553Z,11.23
2019-02-22T19:07:47.116Z,10.87
2019-02-22T19:10:17.772Z,9.53
2019-02-22T19:12:46.415Z,8.23
2019-02-22T19:15:15.389Z,7.50
2019-02-22T19:17:43.951Z,7.73
2019-02-22T19:20:15.191Z,7.60
2019-02-22T19:22:43.755Z,8.10
2019-02-22T19:25:12.302Z,7.50
2019-02-22T19:27:40.918Z,6.80
2019-02-22T19:30:14.905Z,7.97
2019-02-22T19:32:43.394Z,7.07
2019-02-22T19:35:12.002Z,6.83
2019-02-22T19:37:40.635Z,7.23
2019-02-22T19:40:12.114Z,6.93
2019-02-22T19:42:40.682Z,7.10
2019-02-22T19:45:10.955Z,6.07
2019-02-22T19:47:42.153Z,5.90
2019-02-22T19:50:11.946Z,5.80
2019-02-22T19:52:40.614Z,6.30
2019-02-22T19:55:11.623Z,6.50
2019-02-22T19:57:40.502Z,6.10
2019-02-22T20:00:12.142Z,6.40
2019-02-22T20:02:40.598Z,6.37
2019-02-22T20:05:10.399Z,7.03
2019-02-22T20:07:38.870Z,6.80
2019-02-22T20:10:17.810Z,7.20
2019-02-22T20:12:40.430Z,7.40
2019-02-22T20:15:11.738Z,8.43
2019-02-22T20:17:40.430Z,7.57
2019-02-22T20:20:11.787Z,6.90
2019-02-22T20:22:40.391Z,6.60
2019-02-22T20:25:09.110Z,6.40
2019-02-22T20:27:37.574Z,6.20
2019-02-22T20:30:18.314Z,7.57
2019-02-22T20:32:47.153Z,7.20
2019-02-22T20:35:26.778Z,39.20
2019-02-22T20:37:55.318Z,22.70
2019-02-22T20:40:23.887Z,22.97
2019-02-22T20:42:52.501Z,11.80
2019-02-22T20:45:21.061Z,7.27
2019-02-22T20:47:49.602Z,7.17
2019-02-22T20:50:18.166Z,6.90
2019-02-22T20:52:46.698Z,5.17
2019-02-22T20:55:15.542Z,6.00
2019-02-22T20:57:44.000Z,5.70
2019-02-22T21:00:20.348Z,4.80
2019-02-22T21:02:49.078Z,5.43
2019-02-22T21:05:17.867Z,5.73
2019-02-22T21:07:47.165Z,4.30
2019-02-22T21:10:18.267Z,5.23
2019-02-22T21:12:47.678Z,4.60
2019-02-22T21:15:16.614Z,4.73
2019-02-22T21:17:45.140Z,5.03
2019-02-22T21:20:21.628Z,5.30
2019-02-22T21:22:50.224Z,5.10
2019-02-22T21:25:18.854Z,4.50
2019-02-22T21:27:47.345Z,4.83
2019-02-22T21:30:17.286Z,6.60
2019-02-22T21:32:45.850Z,6.73
2019-02-22T21:35:14.387Z,6.97
2019-02-22T21:37:43.886Z,6.80
2019-02-22T21:40:13.462Z,6.20
2019-02-22T21:42:42.022Z,6.17
2019-02-22T21:45:12.002Z,6.30
2019-02-22T21:47:40.919Z,5.60
2019-02-22T21:50:12.370Z,5.70
2019-02-22T21:52:41.265Z,6.30
2019-02-22T21:55:11.473Z,7.33
2019-02-22T21:57:40.051Z,6.17
2019-02-22T22:00:14.274Z,7.20
2019-02-22T22:02:42.831Z,5.70
2019-02-22T22:05:11.362Z,5.30
2019-02-22T22:07:39.994Z,4.43
2019-02-22T22:10:09.338Z,5.20
2019-02-22T22:12:37.894Z,5.47
2019-02-22T22:15:12.235Z,5.63
2019-02-22T22:17:41.105Z,5.80
2019-02-22T22:20:10.584Z,7.00
2019-02-22T22:22:39.250Z,6.00
2019-02-22T22:25:16.884Z,6.37
2019-02-22T22:27:45.493Z,5.70
2019-02-22T22:30:15.092Z,6.37
2019-02-22T22:32:43.634Z,6.90
2019-02-22T22:35:13.871Z,6.07
2019-02-22T22:37:42.406Z,6.00
2019-02-22T22:40:11.402Z,6.90
2019-02-22T22:42:40.014Z,7.40
2019-02-22T22:45:10.720Z,8.23
2019-02-22T22:47:39.252Z,7.57
2019-02-22T22:50:10.252Z,6.70
2019-02-22T22:52:38.782Z,5.80
2019-02-22T22:55:08.810Z,5.23
2019-02-22T22:57:37.413Z,5.17
2019-02-22T23:00:25.663Z,5.80
2019-02-22T23:02:54.266Z,5.37
2019-02-22T23:05:22.890Z,5.57
2019-02-22T23:07:51.347Z,5.70
2019-02-22T23:10:20.142Z,6.30
2019-02-22T23:12:48.683Z,6.23
2019-02-22T23:15:17.239Z,5.10
2019-02-22T23:17:45.776Z,6.07
2019-02-22T23:20:14.350Z,6.30
2019-02-22T23:22:42.871Z,5.80
2019-02-22T23:25:11.435Z,6.00
2019-02-22T23:27:39.967Z,6.47
2019-02-22T23:30:08.962Z,6.80
2019-02-22T23:32:37.430Z,6.50
2019-02-22T23:35:06.518Z,7.27
2019-02-22T23:37:35.054Z,7.20
2019-02-22T23:40:03.687Z,7.10
2019-02-22T23:42:32.218Z,7.17
2019-02-22T23:45:00.783Z,7.33
2019-02-22T23:47:29.320Z,7.00
2019-02-22T23:49:57.846Z,7.13
2019-02-22T23:52:26.330Z,7.10
2019-02-22T23:54:54.794Z,8.07
2019-02-22T23:57:23.356Z,7.47
2019-02-22T23:59:52.250Z,7.00
